Time;durP1;ratioP1;P1;durP2;ratioP2;P2;SDS_P1;SDS_P2;PMS_P1;PMS_P2;Temp;Humidity;BMP_temperature;BMP_pressure;BME280_temperature;BME280_humidity;BME280_pressure;Samples;Min_cycle;Max_cycle;Signal;HPM_P1;HPM_P2
2022/06/26 01:54:14;;;;;;;0.20;0.10;;;18.10;99.90;;;;;;6177902;23;20019;-87
2022/06/26 01:56:42;;;;;;;0.20;0.10;;;18.20;99.90;;;;;;6104175;23;20402;-89
2022/06/26 01:59:08;;;;;;;0.20;0.10;;;18.20;99.90;;;;;;6125545;23;20285;-88
2022/06/26 02:01:34;;;;;;;0.20;0.10;;;18.30;99.90;;;;;;6103774;23;20020;-88
2022/06/26 02:04:00;;;;;;;0.20;0.10;;;18.30;99.90;;;;;;6079007;23;20009;-88
2022/06/26 02:06:25;;;;;;;0.20;0.10;;;18.30;99.90;;;;;;6103692;23;20013;-88
2022/06/26 02:08:51;;;;;;;0.20;0.10;;;18.30;99.90;;;;;;6075425;23;20021;-87
2022/06/26 02:14:01;;;;;;;0.22;0.13;;;18.40;99.90;;;;;;6106564;23;20021;-87
2022/06/26 02:16:30;;;;;;;0.20;0.10;;;18.40;99.90;;;;;;6080655;23;20024;-88
2022/06/26 02:18:57;;;;;;;0.20;0.10;;;18.40;99.90;;;;;;6120793;23;20027;-86
2022/06/26 02:21:27;;;;;;;0.20;0.05;;;18.40;99.90;;;;;;6096930;23;20311;-87
2022/06/26 02:23:53;;;;;;;0.20;0.10;;;18.40;99.90;;;;;;6118139;23;20112;-85
2022/06/26 02:26:20;;;;;;;0.20;0.10;;;18.40;99.90;;;;;;6095243;23;20215;-85
2022/06/26 02:28:47;;;;;;;0.20;0.10;;;18.40;99.90;;;;;;6097604;23;20031;-86
2022/06/26 02:31:13;;;;;;;0.20;0.00;;;18.40;99.90;;;;;;6082973;23;20481;-87
2022/06/26 02:33:42;;;;;;;0.20;0.10;;;18.40;99.90;;;;;;6105853;23;20017;-89
2022/06/26 02:36:09;;;;;;;0.20;0.10;;;18.40;99.90;;;;;;6110491;23;20024;-88
2022/06/26 02:38:35;;;;;;;0.20;0.08;;;18.40;99.90;;;;;;6086650;23;20017;-89
2022/06/26 02:41:02;;;;;;;0.85;0.30;;;18.40;99.90;;;;;;6125197;23;20020;-89
2022/06/26 02:43:28;;;;;;;0.20;0.10;;;18.40;99.90;;;;;;6102066;23;20071;-87
2022/06/26 02:45:55;;;;;;;0.20;0.10;;;18.40;99.90;;;;;;6100504;23;20020;-87
2022/06/26 02:48:21;;;;;;;0.20;0.10;;;18.40;99.90;;;;;;6124037;23;20098;-88
2022/06/26 02:50:47;;;;;;;0.20;0.10;;;18.40;99.90;;;;;;6098685;23;20017;-91
2022/06/26 02:53:14;;;;;;;0.20;0.10;;;18.30;99.90;;;;;;6124360;23;20359;-88
2022/06/26 02:55:39;;;;;;;0.20;0.10;;;18.30;99.90;;;;;;6121208;23;20059;-88
2022/06/26 02:58:05;;;;;;;0.20;0.10;;;18.30;99.90;;;;;;6076974;23;20016;-87
2022/06/26 03:00:31;;;;;;;0.20;0.10;;;18.30;99.90;;;;;;6097362;23;20017;-89
2022/06/26 05:46:43;;;;;;;0.20;0.10;;;17.40;99.90;;;;;;6207098;23;20073;-88
2022/06/26 05:49:09;;;;;;;0.20;0.10;;;17.40;99.90;;;;;;6135599;23;20017;-89
2022/06/26 05:51:35;;;;;;;0.20;0.00;;;17.40;99.90;;;;;;6160962;23;20409;-87
2022/06/26 05:54:00;;;;;;;0.20;0.10;;;17.40;99.90;;;;;;6114216;23;20485;-88
2022/06/26 05:56:26;;;;;;;0.20;0.10;;;17.40;99.90;;;;;;6166951;23;20013;-87
2022/06/26 05:58:52;;;;;;;0.20;0.10;;;17.40;99.90;;;;;;6134185;23;20477;-87
2022/06/26 06:01:17;;;;;;;0.20;0.10;;;17.50;99.90;;;;;;6110676;23;20016;-89
2022/06/26 06:03:43;;;;;;;0.20;0.15;;;17.50;99.90;;;;;;6138200;23;20016;-87
2022/06/26 06:06:09;;;;;;;0.20;0.10;;;17.60;99.90;;;;;;6112900;23;20178;-88
2022/06/26 06:08:35;;;;;;;0.20;0.10;;;17.70;99.90;;;;;;6117510;23;20020;-88
2022/06/26 06:11:00;;;;;;;0.20;0.10;;;17.70;99.90;;;;;;6122403;23;20016;-89
2022/06/26 06:13:26;;;;;;;0.20;0.10;;;17.70;99.90;;;;;;6147810;23;20016;-86
2022/06/26 06:15:52;;;;;;;0.20;0.10;;;17.70;99.90;;;;;;6118907;23;20016;-87
2022/06/26 06:18:17;;;;;;;0.20;0.10;;;17.70;99.90;;;;;;6122201;23;20056;-86
2022/06/26 06:20:45;;;;;;;0.20;0.10;;;17.70;99.90;;;;;;6167503;23;20051;-87
2022/06/26 06:23:11;;;;;;;0.20;0.10;;;17.80;99.90;;;;;;6116094;23;20478;-86
2022/06/26 06:25:37;;;;;;;0.20;0.10;;;17.80;99.90;;;;;;6135207;23;20575;-87
2022/06/26 06:28:03;;;;;;;0.20;0.10;;;17.80;99.90;;;;;;6110026;23;20040;-85
2022/06/26 06:30:29;;;;;;;0.20;0.20;;;17.80;99.90;;;;;;6130189;23;20020;-86
2022/06/26 06:32:54;;;;;;;0.20;0.10;;;17.90;99.90;;;;;;6159904;23;20020;-85
2022/06/26 06:35:20;;;;;;;0.20;0.10;;;18.00;99.90;;;;;;6106562;23;20018;-83
2022/06/26 06:37:46;;;;;;;0.20;0.10;;;18.00;99.90;;;;;;6134479;23;20027;-86
2022/06/26 06:40:14;;;;;;;0.82;0.55;;;18.00;99.90;;;;;;6158819;23;20016;-85
2022/06/26 06:42:41;;;;;;;0.20;0.10;;;18.00;99.90;;;;;;6162098;23;20013;-85
2022/06/26 06:45:07;;;;;;;0.28;0.08;;;18.00;99.90;;;;;;6135275;23;20012;-86
2022/06/26 06:47:33;;;;;;;0.20;0.10;;;18.00;99.90;;;;;;6105791;23;20115;-87
2022/06/26 06:49:59;;;;;;;0.20;0.20;;;18.00;99.90;;;;;;6159678;23;20016;-86
2022/06/26 06:52:24;;;;;;;0.20;0.10;;;17.90;99.90;;;;;;6154499;23;20020;-88
2022/06/26 06:54:50;;;;;;;0.30;0.30;;;17.90;99.90;;;;;;6105994;23;20083;-88
2022/06/26 06:57:16;;;;;;;0.20;0.10;;;17.90;99.90;;;;;;6153113;23;20017;-87
2022/06/26 06:59:42;;;;;;;0.30;0.22;;;17.90;99.90;;;;;;6103865;23;20346;-85
2022/06/26 07:02:07;;;;;;;0.20;0.10;;;17.90;99.90;;;;;;6102577;23;20504;-87
2022/06/26 07:04:33;;;;;;;0.20;0.10;;;17.90;99.90;;;;;;6154859;23;20357;-85
2022/06/26 07:06:59;;;;;;;0.50;0.32;;;17.90;99.90;;;;;;6128397;23;20099;-86
2022/06/26 07:09:25;;;;;;;0.30;0.20;;;17.90;99.90;;;;;;6130695;23;20463;-86
2022/06/26 07:11:50;;;;;;;0.20;0.10;;;18.00;99.90;;;;;;6149920;23;20417;-86
2022/06/26 07:14:16;;;;;;;0.32;0.22;;;18.00;99.90;;;;;;6104918;23;20059;-87
2022/06/26 07:16:42;;;;;;;0.20;0.10;;;18.10;99.90;;;;;;6103929;23;20039;-86
2022/06/26 07:19:08;;;;;;;0.20;0.20;;;18.10;99.90;;;;;;6156593;23;20421;-84
2022/06/26 07:21:34;;;;;;;0.38;0.25;;;18.00;99.90;;;;;;6137544;23;20023;-84
2022/06/26 07:23:59;;;;;;;0.20;0.10;;;18.00;99.90;;;;;;6154252;23;20019;-86
2022/06/26 07:26:25;;;;;;;0.20;0.10;;;18.00;99.90;;;;;;6149552;23;20020;-86
2022/06/26 07:28:51;;;;;;;0.20;0.10;;;18.00;99.90;;;;;;6154437;23;20027;-88
2022/06/26 07:31:17;;;;;;;0.30;0.20;;;18.10;99.90;;;;;;6105051;23;20443;-86
2022/06/26 07:36:26;;;;;;;0.20;0.10;;;18.30;99.90;;;;;;6140084;23;20020;-86
2022/06/26 07:38:52;;;;;;;0.20;0.10;;;18.40;99.90;;;;;;6157176;23;20357;-83
2022/06/26 07:41:18;;;;;;;0.20;0.13;;;18.50;99.90;;;;;;6106859;23;20334;-81
2022/06/26 07:43:44;;;;;;;0.20;0.20;;;18.50;99.90;;;;;;6097067;23;20482;-84
2022/06/26 07:46:10;;;;;;;0.50;0.50;;;18.60;99.90;;;;;;6137411;23;20025;-84
2022/06/26 07:48:36;;;;;;;0.20;0.13;;;18.50;99.90;;;;;;6118795;23;20543;-86
2022/06/26 07:51:02;;;;;;;0.20;0.20;;;18.50;99.90;;;;;;6096848;23;20016;-86
2022/06/26 07:53:28;;;;;;;0.20;0.20;;;18.50;99.90;;;;;;6117697;23;20430;-86
2022/06/26 07:55:54;;;;;;;0.20;0.10;;;18.40;99.90;;;;;;6123189;23;20028;-85
2022/06/26 07:58:21;;;;;;;0.20;0.10;;;18.50;99.90;;;;;;6149970;23;20350;-86
2022/06/26 08:00:47;;;;;;;0.77;0.20;;;18.60;99.90;;;;;;6142391;23;20027;-85
2022/06/26 08:03:16;;;;;;;0.20;0.10;;;18.70;99.90;;;;;;6149845;23;20013;-86
2022/06/26 08:05:43;;;;;;;0.20;0.10;;;18.80;99.90;;;;;;6126495;23;20012;-85
2022/06/26 08:08:09;;;;;;;1.00;0.52;;;18.90;99.90;;;;;;6154639;23;20135;-85
2022/06/26 08:10:38;;;;;;;0.20;0.20;;;18.90;99.90;;;;;;6156203;23;20028;-86
2022/06/26 08:13:07;;;;;;;0.20;0.13;;;18.90;99.90;;;;;;6153929;23;20076;-87
2022/06/26 08:15:37;;;;;;;0.20;0.10;;;19.00;99.90;;;;;;6150974;23;20114;-86
2022/06/26 08:20:55;;;;;;;0.98;0.55;;;19.00;99.90;;;;;;6162051;23;20028;-86
2022/06/26 08:23:21;;;;;;;0.60;0.38;;;19.00;99.90;;;;;;6162335;23;20070;-86
2022/06/26 08:25:46;;;;;;;0.28;0.28;;;19.00;99.90;;;;;;6156229;23;20020;-85
2022/06/26 08:28:17;;;;;;;0.25;0.25;;;18.90;99.90;;;;;;6156039;23;20017;-86
2022/06/26 08:30:43;;;;;;;0.63;0.30;;;18.90;99.90;;;;;;6146931;23;20013;-86
2022/06/26 08:33:09;;;;;;;0.20;0.10;;;18.90;99.90;;;;;;6149994;23;20067;-85
2022/06/26 08:35:35;;;;;;;0.20;0.10;;;18.90;99.90;;;;;;6111398;23;20099;-86
2022/06/26 08:38:00;;;;;;;0.20;0.10;;;19.00;99.90;;;;;;6150102;23;20190;-87
2022/06/26 08:40:27;;;;;;;0.43;0.38;;;19.00;99.90;;;;;;6169938;23;20397;-86
2022/06/26 08:42:53;;;;;;;0.20;0.10;;;19.10;99.90;;;;;;6137281;23;20013;-85
2022/06/26 08:45:23;;;;;;;0.52;0.15;;;19.20;99.90;;;;;;6136492;23;20309;-86
2022/06/26 08:47:51;;;;;;;0.20;0.10;;;19.20;99.90;;;;;;6159229;23;20020;-85
2022/06/26 08:50:20;;;;;;;0.20;0.10;;;19.30;99.90;;;;;;6158078;23;20024;-85
2022/06/26 08:52:46;;;;;;;0.20;0.15;;;19.30;99.90;;;;;;6158015;23;20191;-86
2022/06/26 08:55:13;;;;;;;0.20;0.10;;;19.30;99.90;;;;;;6183013;23;20078;-86
2022/06/26 08:57:39;;;;;;;0.20;0.10;;;19.30;99.90;;;;;;6159151;23;20018;-85
2022/06/26 09:00:06;;;;;;;0.20;0.10;;;19.30;99.90;;;;;;6135156;23;20052;-86
2022/06/26 09:02:31;;;;;;;0.55;0.55;;;19.30;99.90;;;;;;6134425;23;20087;-86
2022/06/26 09:04:57;;;;;;;0.20;0.10;;;19.20;99.90;;;;;;6110454;23;20051;-87
2022/06/26 09:07:23;;;;;;;0.30;0.30;;;19.20;99.90;;;;;;6159352;23;20020;-85
2022/06/26 09:09:49;;;;;;;0.20;0.10;;;19.30;99.90;;;;;;6134390;23;20106;-85
2022/06/26 09:12:15;;;;;;;0.20;0.10;;;19.30;99.90;;;;;;6134763;23;20412;-86
2022/06/26 09:14:41;;;;;;;0.20;0.10;;;19.40;99.90;;;;;;6159449;23;20068;-86
2022/06/26 09:17:06;;;;;;;0.30;0.25;;;19.40;99.90;;;;;;6134500;23;20277;-88
2022/06/26 09:19:35;;;;;;;0.20;0.10;;;19.40;99.90;;;;;;6134031;23;20048;-86
2022/06/26 09:22:09;;;;;;;0.47;0.47;;;19.40;99.90;;;;;;6157260;23;20044;-87
2022/06/26 09:24:36;;;;;;;0.20;0.10;;;19.50;99.90;;;;;;6159128;23;20013;-86
2022/06/26 09:27:13;;;;;;;0.22;0.15;;;19.60;99.90;;;;;;6134400;23;20013;-86
2022/06/26 09:29:41;;;;;;;0.20;0.10;;;19.60;99.90;;;;;;6184186;23;20328;-86
2022/06/26 09:32:08;;;;;;;0.20;0.10;;;19.70;99.90;;;;;;6158083;23;20078;-86
2022/06/26 09:34:34;;;;;;;0.20;0.10;;;19.80;99.90;;;;;;6158044;23;20031;-87
2022/06/26 09:37:04;;;;;;;1.50;0.40;;;19.80;99.90;;;;;;6159163;23;20012;-87
2022/06/26 09:39:31;;;;;;;0.50;0.30;;;19.90;99.90;;;;;;6158655;23;20048;-87
2022/06/26 09:41:57;;;;;;;0.20;0.10;;;19.90;99.90;;;;;;6136966;23;20345;-87
2022/06/26 09:44:23;;;;;;;0.20;0.10;;;19.90;99.90;;;;;;6133193;23;20015;-87
2022/06/26 09:46:49;;;;;;;0.20;0.10;;;20.00;99.90;;;;;;6159293;23;20012;-86
2022/06/26 09:49:17;;;;;;;0.20;0.10;;;20.00;99.90;;;;;;6183482;23;20012;-87
2022/06/26 09:51:46;;;;;;;0.20;0.10;;;20.00;99.90;;;;;;6159283;23;20052;-86
2022/06/26 09:54:13;;;;;;;0.20;0.10;;;20.10;99.90;;;;;;6157845;23;20016;-87
2022/06/26 09:56:40;;;;;;;0.20;0.10;;;20.10;99.90;;;;;;6158686;23;20028;-86
2022/06/26 09:59:07;;;;;;;0.20;0.17;;;20.20;99.90;;;;;;6157363;23;20132;-86
2022/06/26 10:07:06;;;;;;;1.23;0.55;;;20.20;99.90;;;;;;6184347;23;20338;-87
2022/06/26 10:09:34;;;;;;;0.20;0.10;;;20.20;99.90;;;;;;6160847;23;20415;-86
2022/06/26 10:12:03;;;;;;;0.20;0.10;;;20.30;99.90;;;;;;6160443;23;20017;-85
2022/06/26 10:14:35;;;;;;;0.20;0.10;;;20.40;99.90;;;;;;6160469;23;20091;-87
2022/06/26 10:17:19;;;;;;;0.20;0.10;;;20.40;99.90;;;;;;6163319;23;20020;-87
2022/06/26 10:19:46;;;;;;;0.20;0.20;;;20.40;99.90;;;;;;6159888;23;20020;-86
2022/06/26 10:22:15;;;;;;;0.20;0.10;;;20.40;99.90;;;;;;6160270;23;20091;-87
2022/06/26 10:24:52;;;;;;;0.20;0.03;;;20.50;99.90;;;;;;6161743;23;20051;-86
2022/06/26 10:27:33;;;;;;;0.20;0.10;;;20.50;99.90;;;;;;6159670;23;20009;-87
2022/06/26 10:30:11;;;;;;;0.20;0.10;;;20.50;99.90;;;;;;6159126;23;20100;-86
2022/06/26 10:32:38;;;;;;;0.20;0.20;;;20.50;99.90;;;;;;6182795;23;20349;-86
2022/06/26 10:35:04;;;;;;;0.20;0.10;;;20.40;99.90;;;;;;6157906;23;20013;-87
2022/06/26 10:37:48;;;;;;;0.20;0.10;;;20.40;99.90;;;;;;6161175;23;20021;-87
2022/06/26 10:43:06;;;;;;;0.20;0.10;;;20.30;99.90;;;;;;6187357;23;20024;-87
2022/06/26 10:45:40;;;;;;;0.20;0.10;;;20.30;99.90;;;;;;6183390;23;20019;-87
2022/06/26 10:48:17;;;;;;;0.20;0.10;;;20.30;99.90;;;;;;6159805;23;20445;-87
2022/06/26 10:50:45;;;;;;;0.20;0.10;;;20.30;99.90;;;;;;6159509;23;20066;-87
2022/06/26 10:53:30;;;;;;;0.20;0.10;;;20.30;99.90;;;;;;6135737;23;20361;-86
2022/06/26 10:55:59;;;;;;;0.20;0.10;;;20.30;99.90;;;;;;6159592;23;20015;-86
2022/06/26 10:58:35;;;;;;;0.20;0.10;;;20.30;99.90;;;;;;6160838;23;20404;-85
2022/06/26 11:01:06;;;;;;;0.20;0.10;;;20.30;99.90;;;;;;6191827;23;20016;-86
2022/06/26 11:03:32;;;;;;;0.20;0.10;;;20.40;99.90;;;;;;6164651;23;20476;-87
2022/06/26 11:05:59;;;;;;;0.20;0.10;;;20.40;99.90;;;;;;6119602;23;20012;-87
2022/06/26 11:08:31;;;;;;;0.20;0.10;;;20.40;99.90;;;;;;6168108;23;20068;-87
2022/06/26 11:11:17;;;;;;;;;;;20.40;99.90;;;;;;6163332;23;20124;-86
2022/06/26 11:13:53;;;;;;;0.20;0.10;;;20.40;99.90;;;;;;6160062;23;19997;-86
2022/06/26 11:16:44;;;;;;;0.20;0.10;;;20.40;99.90;;;;;;6134858;23;20051;-86
2022/06/26 11:19:24;;;;;;;0.20;0.10;;;20.40;99.90;;;;;;6162199;23;20040;-87
2022/06/26 11:22:09;;;;;;;0.20;0.10;;;20.50;99.90;;;;;;6166893;23;20104;-85
2022/06/26 11:24:47;;;;;;;0.20;0.10;;;20.50;99.90;;;;;;6137540;23;20076;-87
2022/06/26 11:27:14;;;;;;;0.20;0.10;;;20.50;99.90;;;;;;6159174;23;20009;-87
2022/06/26 11:29:40;;;;;;;0.20;0.10;;;20.60;99.90;;;;;;6158734;23;20020;-86
2022/06/26 11:32:07;;;;;;;0.20;0.10;;;20.60;99.90;;;;;;6183305;23;20047;-87
2022/06/26 11:34:32;;;;;;;0.20;0.10;;;20.60;99.90;;;;;;6159079;23;20016;-87
2022/06/26 11:37:00;;;;;;;0.20;0.10;;;20.70;99.90;;;;;;6158837;23;20043;-86
2022/06/26 11:39:40;;;;;;;0.20;0.17;;;20.70;99.90;;;;;;6134781;23;20044;-86
2022/06/26 11:42:22;;;;;;;0.20;0.10;;;20.70;99.90;;;;;;6185446;23;20204;-88
2022/06/26 11:44:52;;;;;;;0.20;0.10;;;20.80;99.90;;;;;;6158424;23;20122;-86
2022/06/26 11:47:20;;;;;;;0.20;0.10;;;20.80;99.90;;;;;;6157967;23;20012;-86
2022/06/26 11:49:46;;;;;;;0.20;0.10;;;20.80;99.90;;;;;;6160981;23;20533;-87
2022/06/26 11:52:14;;;;;;;0.20;0.00;;;20.80;99.90;;;;;;6160091;23;20235;-87
2022/06/26 11:54:40;;;;;;;0.20;0.10;;;20.80;99.90;;;;;;6110684;23;20047;-88
2022/06/26 11:57:08;;;;;;;0.20;0.10;;;20.80;99.90;;;;;;6158042;23;20106;-87
2022/06/26 11:59:40;;;;;;;0.20;0.20;;;20.80;99.90;;;;;;6158245;23;20021;-87
2022/06/26 12:02:16;;;;;;;;;;;20.80;99.90;;;;;;6158763;23;20536;-87
2022/06/26 12:04:42;;;;;;;0.20;0.10;;;20.80;99.90;;;;;;6157865;23;19986;-86
2022/06/26 12:07:09;;;;;;;0.20;0.10;;;20.80;99.90;;;;;;6109835;23;20013;-87
2022/06/26 12:09:37;;;;;;;0.20;0.10;;;20.80;99.90;;;;;;6158434;23;20020;-86
2022/06/26 12:12:12;;;;;;;0.52;0.40;;;20.90;99.90;;;;;;6109394;23;20048;-87
2022/06/26 12:14:52;;;;;;;0.20;0.10;;;20.90;99.90;;;;;;6157981;23;20017;-86
2022/06/26 12:17:23;;;;;;;0.20;0.10;;;20.90;99.90;;;;;;6155685;23;20401;-87
2022/06/26 12:19:49;;;;;;;0.20;0.10;;;20.90;99.90;;;;;;6155812;23;20024;-86
2022/06/26 12:22:28;;;;;;;0.20;0.10;;;20.90;99.90;;;;;;6132375;23;20295;-86
2022/06/26 12:24:56;;;;;;;0.20;0.10;;;20.90;99.90;;;;;;6153958;23;20622;-86
2022/06/26 12:27:48;;;;;;;0.30;0.20;;;20.90;99.90;;;;;;6122328;23;20043;-87
2022/06/26 12:30:22;;;;;;;0.20;0.10;;;20.90;99.90;;;;;;6146864;23;20028;-86
2022/06/26 12:32:48;;;;;;;0.20;0.10;;;21.00;99.90;;;;;;6151526;23;20476;-86
2022/06/26 12:35:21;;;;;;;0.20;0.10;;;21.00;99.90;;;;;;6151708;23;20077;-88
2022/06/26 12:37:49;;;;;;;0.20;0.10;;;21.10;99.90;;;;;;6130259;23;20070;-87
2022/06/26 12:40:15;;;;;;;0.20;0.10;;;21.10;99.90;;;;;;6151724;23;20020;-87
2022/06/26 12:42:41;;;;;;;0.20;0.10;;;21.10;99.90;;;;;;6104255;23;20087;-88
2022/06/26 12:45:08;;;;;;;0.20;0.10;;;21.10;99.90;;;;;;6129699;23;20016;-88
2022/06/26 12:47:34;;;;;;;0.32;0.32;;;21.10;99.90;;;;;;6178004;23;20023;-87
2022/06/26 12:49:59;;;;;;;0.20;0.10;;;21.10;99.90;;;;;;6154204;23;20390;-88
2022/06/26 12:52:25;;;;;;;0.20;0.10;;;21.10;99.90;;;;;;6153002;23;20128;-88
2022/06/26 12:54:51;;;;;;;0.20;0.10;;;21.10;99.90;;;;;;6127790;23;20410;-88
2022/06/26 12:57:17;;;;;;;0.20;0.10;;;21.10;99.90;;;;;;6152806;23;20095;-89
2022/06/26 12:59:43;;;;;;;0.20;0.10;;;21.00;99.90;;;;;;6154644;23;20047;-88
2022/06/26 13:02:10;;;;;;;0.20;0.10;;;21.00;99.90;;;;;;6130421;23;20548;-87
2022/06/26 13:06:04;;;;;;;0.20;0.10;;;21.00;99.90;;;;;;6128701;23;20478;-88
2022/06/26 13:12:15;;;;;;;0.20;0.10;;;21.00;99.90;;;;;;6007883;23;20032;-88
2022/06/26 13:14:42;;;;;;;0.20;0.10;;;21.00;99.90;;;;;;6007169;23;20026;-87
2022/06/26 13:17:46;;;;;;;0.20;0.10;;;21.00;99.90;;;;;;6132355;23;20017;-88
2022/06/26 13:20:22;;;;;;;0.20;0.10;;;21.00;99.90;;;;;;6148160;23;20074;-90
2022/06/26 13:23:10;;;;;;;0.20;0.00;;;21.00;99.90;;;;;;6175733;23;20042;-90
2022/06/26 13:25:39;;;;;;;0.20;0.10;;;20.90;99.90;;;;;;6100394;23;20661;-89
2022/06/26 13:28:36;;;;;;;0.20;0.10;;;20.90;99.90;;;;;;6097708;23;20442;-89
2022/06/26 13:31:12;;;;;;;0.20;0.10;;;20.80;99.90;;;;;;6101959;23;20013;-90
2022/06/26 13:34:00;;;;;;;0.73;0.47;;;20.80;99.90;;;;;;6126872;23;20082;-90
2022/06/26 13:36:42;;;;;;;0.20;0.10;;;20.80;99.90;;;;;;6150945;23;20454;-89
2022/06/26 13:39:27;;;;;;;0.20;0.00;;;20.70;99.90;;;;;;6101313;23;20263;-90
2022/06/26 13:42:11;;;;;;;0.20;0.10;;;20.70;99.90;;;;;;6118416;23;20408;-90
2022/06/26 13:45:23;;;;;;;0.20;0.10;;;20.70;99.90;;;;;;6126632;23;20041;-89
2022/06/26 13:47:52;;;;;;;0.20;0.10;;;20.70;99.90;;;;;;6136172;23;20086;-89
2022/06/26 13:50:21;;;;;;;0.20;0.10;;;20.60;99.90;;;;;;6122613;23;20211;-87
2022/06/26 13:53:16;;;;;;;0.20;0.10;;;20.60;99.90;;;;;;6100335;23;20017;-90
2022/06/26 13:56:04;;;;;;;0.20;0.03;;;20.60;99.90;;;;;;6127235;23;20045;-91
2022/06/26 13:59:02;;;;;;;0.20;0.10;;;20.60;99.90;;;;;;6124622;23;20221;-89
2022/06/26 14:01:31;;;;;;;0.20;0.10;;;20.70;99.90;;;;;;6081766;23;20020;-91
2022/06/26 14:03:57;;;;;;;0.20;0.10;;;20.60;99.90;;;;;;6130792;23;20013;-87
2022/06/26 14:06:22;;;;;;;0.20;0.10;;;20.60;99.90;;;;;;6130313;23;20013;-86
2022/06/26 14:08:48;;;;;;;0.20;0.10;;;20.60;99.90;;;;;;6124909;23;20362;-88
2022/06/26 14:11:14;;;;;;;0.20;0.10;;;20.60;99.90;;;;;;6149158;23;20024;-87
2022/06/26 14:13:40;;;;;;;0.20;0.10;;;20.70;99.90;;;;;;6097248;23;20024;-89
